TimeEST,TemperatureF,Dew PointF,Humidity,Sea Level PressureIn,VisibilityMPH,Wind Direction,Wind SpeedMPH,Gust SpeedMPH,PrecipitationIn,Events,Conditions,WindDirDegrees,DateUTC
12:15 AM,35.6,24.8,65,30.20,10.0,NNE,9.2,-,N/A,,Overcast,20,2012-11-30 05:15:00
12:35 AM,35.6,26.6,70,30.22,10.0,North,11.5,-,N/A,,Overcast,350,2012-11-30 05:35:00
1:15 AM,33.8,24.8,70,30.23,10.0,North,8.1,-,N/A,,Overcast,350,2012-11-30 06:15:00
1:35 AM,33.8,24.8,70,30.25,10.0,North,12.7,-,N/A,,Overcast,360,2012-11-30 06:35:00
1:55 AM,33.8,24.8,70,30.26,10.0,North,9.2,-,N/A,,Overcast,350,2012-11-30 06:55:00
2:15 AM,33.8,24.8,70,30.28,10.0,NNW,8.1,-,N/A,,Overcast,330,2012-11-30 07:15:00
2:35 AM,32.0,24.8,75,30.29,10.0,NNW,6.9,-,N/A,,Overcast,340,2012-11-30 07:35:00
2:55 AM,32.0,23.0,69,30.28,10.0,NNE,10.4,-,N/A,,Overcast,20,2012-11-30 07:55:00
3:35 AM,30.2,21.2,69,30.30,10.0,North,9.2,-,N/A,,Overcast,10,2012-11-30 08:35:00
3:55 AM,30.2,21.2,69,30.31,10.0,NNE,12.7,-,N/A,,Overcast,20,2012-11-30 08:55:00
4:15 AM,30.2,21.2,69,30.32,10.0,North,10.4,-,N/A,,Overcast,10,2012-11-30 09:15:00
4:35 AM,30.2,21.2,69,30.33,10.0,North,8.1,-,N/A,,Overcast,360,2012-11-30 09:35:00
4:55 AM,30.2,19.4,64,30.33,10.0,North,6.9,-,N/A,,Overcast,350,2012-11-30 09:55:00
5:15 AM,28.4,19.4,69,30.34,10.0,North,10.4,-,N/A,,Overcast,360,2012-11-30 10:15:00
5:35 AM,28.4,19.4,69,30.35,10.0,North,10.4,-,N/A,,Overcast,350,2012-11-30 10:35:00
5:55 AM,28.4,17.6,64,30.36,10.0,NNE,10.4,-,N/A,,Overcast,20,2012-11-30 10:55:00
6:15 AM,26.6,15.8,64,30.38,10.0,North,13.8,-,N/A,,Mostly Cloudy,10,2012-11-30 11:15:00
6:35 AM,26.6,14.0,59,30.40,10.0,North,9.2,-,N/A,,Clear,360,2012-11-30 11:35:00
6:55 AM,26.6,12.2,55,30.41,10.0,North,13.8,-,N/A,,Partly Cloudy,10,2012-11-30 11:55:00
7:15 AM,26.6,12.2,55,30.42,10.0,North,12.7,-,N/A,,Clear,360,2012-11-30 12:15:00
7:35 AM,24.8,12.2,59,30.44,10.0,NNE,11.5,-,N/A,,Clear,20,2012-11-30 12:35:00
7:55 AM,24.8,10.4,54,30.45,10.0,NNE,9.2,-,N/A,,Clear,20,2012-11-30 12:55:00
8:15 AM,24.8,8.6,50,30.45,10.0,NNE,10.4,16.1,N/A,,Mostly Cloudy,20,2012-11-30 13:15:00
8:35 AM,24.8,8.6,50,30.46,10.0,NNE,10.4,-,N/A,,Mostly Cloudy,20,2012-11-30 13:35:00
8:55 AM,24.8,5.0,43,30.46,10.0,North,11.5,-,N/A,,Partly Cloudy,10,2012-11-30 13:55:00
9:15 AM,24.8,3.2,40,30.47,10.0,NNE,12.7,-,N/A,,Clear,20,2012-11-30 14:15:00
9:35 AM,24.8,1.4,36,30.48,10.0,NNE,12.7,-,N/A,,Clear,20,2012-11-30 14:35:00
9:55 AM,26.6,1.4,34,30.48,10.0,North,10.4,-,N/A,,Clear,350,2012-11-30 14:55:00
10:15 AM,26.6,1.4,34,30.48,10.0,North,10.4,-,N/A,,Clear,10,2012-11-30 15:15:00
10:35 AM,26.6,-0.4,31,30.48,10.0,North,12.7,-,N/A,,Clear,10,2012-11-30 15:35:00
10:55 AM,26.6,-0.4,31,30.47,10.0,North,12.7,-,N/A,,Clear,10,2012-11-30 15:55:00
11:15 AM,26.6,-0.4,31,30.47,10.0,North,9.2,-,N/A,,Clear,10,2012-11-30 16:15:00
11:35 AM,26.6,-0.4,31,30.47,10.0,North,6.9,-,N/A,,Clear,10,2012-11-30 16:35:00
11:55 AM,28.4,-2.2,27,30.47,10.0,North,10.4,-,N/A,,Mostly Cloudy,360,2012-11-30 16:55:00
12:15 PM,28.4,-2.2,27,30.47,10.0,North,8.1,-,N/A,,Overcast,350,2012-11-30 17:15:00
12:35 PM,28.4,-2.2,27,30.46,10.0,NNW,8.1,-,N/A,,Scattered Clouds,340,2012-11-30 17:35:00
12:55 PM,28.4,-2.2,27,30.46,10.0,NW,6.9,-,N/A,,Mostly Cloudy,320,2012-11-30 17:55:00
1:15 PM,28.4,-2.2,27,30.45,10.0,North,5.8,-,N/A,,Overcast,350,2012-11-30 18:15:00
1:35 PM,30.2,-0.4,27,30.45,10.0,NNW,8.1,-,N/A,,Overcast,340,2012-11-30 18:35:00
1:55 PM,28.4,-0.4,29,30.45,10.0,NNW,8.1,-,N/A,,Overcast,340,2012-11-30 18:55:00
2:15 PM,28.4,-0.4,29,30.45,10.0,NNW,6.9,-,N/A,,Overcast,330,2012-11-30 19:15:00
2:35 PM,28.4,-0.4,29,30.46,10.0,NNW,6.9,-,N/A,,Overcast,340,2012-11-30 19:35:00
2:55 PM,28.4,-0.4,29,30.46,10.0,North,6.9,-,N/A,,Overcast,350,2012-11-30 19:55:00
3:15 PM,28.4,-0.4,29,30.47,10.0,NW,5.8,-,N/A,,Overcast,320,2012-11-30 20:15:00
3:35 PM,28.4,-0.4,29,30.47,10.0,NNW,5.8,-,N/A,,Overcast,340,2012-11-30 20:35:00
3:55 PM,28.4,-0.4,29,30.47,10.0,NNW,6.9,-,N/A,,Overcast,340,2012-11-30 20:55:00
4:15 PM,28.4,-0.4,29,30.47,10.0,North,9.2,-,N/A,,Overcast,350,2012-11-30 21:15:00
4:35 PM,28.4,-0.4,29,30.46,10.0,North,8.1,-,N/A,,Overcast,350,2012-11-30 21:35:00
4:55 PM,28.4,-0.4,29,30.47,10.0,NNW,5.8,-,N/A,,Overcast,330,2012-11-30 21:55:00
5:15 PM,26.6,-2.2,29,30.48,10.0,NNW,6.9,-,N/A,,Overcast,330,2012-11-30 22:15:00
5:35 PM,26.6,-0.4,31,30.49,10.0,NW,3.5,-,N/A,,Overcast,320,2012-11-30 22:35:00
5:55 PM,26.6,-0.4,31,30.49,10.0,NNW,6.9,-,N/A,,Overcast,330,2012-11-30 22:55:00
6:15 PM,26.6,-0.4,31,30.50,10.0,NNW,4.6,-,N/A,,Overcast,340,2012-11-30 23:15:00
6:35 PM,26.6,-0.4,31,30.51,10.0,North,4.6,-,N/A,,Overcast,350,2012-11-30 23:35:00
6:55 PM,26.6,-0.4,31,30.51,10.0,North,6.9,-,N/A,,Overcast,350,2012-11-30 23:55:00
7:15 PM,26.6,-0.4,31,30.51,10.0,North,5.8,-,N/A,,Overcast,350,2012-12-01 00:15:00
7:35 PM,26.6,1.4,34,30.52,10.0,NNW,5.8,-,N/A,,Overcast,340,2012-12-01 00:35:00
7:55 PM,26.6,1.4,34,30.52,10.0,North,5.8,-,N/A,,Overcast,350,2012-12-01 00:55:00
8:15 PM,26.6,1.4,34,30.52,10.0,NNW,4.6,-,N/A,,Overcast,340,2012-12-01 01:15:00
8:35 PM,26.6,1.4,34,30.53,10.0,North,4.6,-,N/A,,Overcast,350,2012-12-01 01:35:00
8:55 PM,26.6,1.4,34,30.53,10.0,NNW,4.6,-,N/A,,Overcast,340,2012-12-01 01:55:00
9:15 PM,26.6,1.4,34,30.53,10.0,NNW,8.1,-,N/A,,Overcast,330,2012-12-01 02:15:00
9:35 PM,26.6,1.4,34,30.53,10.0,NNW,4.6,-,N/A,,Overcast,340,2012-12-01 02:35:00
9:55 PM,26.6,1.4,34,30.53,10.0,NNW,6.9,-,N/A,,Overcast,340,2012-12-01 02:55:00
10:15 PM,26.6,1.4,34,30.53,10.0,NW,3.5,-,N/A,,Overcast,320,2012-12-01 03:15:00
10:35 PM,26.6,3.2,37,30.53,10.0,Calm,Calm,-,N/A,,Overcast,0,2012-12-01 03:35:00
10:55 PM,26.6,3.2,37,30.53,10.0,Calm,Calm,-,N/A,,Overcast,0,2012-12-01 03:55:00
11:15 PM,26.6,3.2,37,30.54,10.0,NNW,5.8,-,N/A,,Mostly Cloudy,340,2012-12-01 04:15:00
11:35 PM,26.6,5.0,40,30.54,10.0,NNW,5.8,-,N/A,,Scattered Clouds,340,2012-12-01 04:35:00